Hauptseite
METAR-TAF:

METAR-TAF

Flughäfen :

Flughafen Deauville

Deauville, Frankreich

Breite: 49-21-55N, Länge: 000-09-16E, Höhe: 146 m

Beobachtung

Neuester Wetterbericht von vor 23 Minuten, um 07:30 UTC
Wind 6 kt aus Ost/Nordost, variierte zwischen Nord/Nordost und Ost/Südost
Temperatur 14°C
Luftfeuchtigkeit 82%
Luftdruck 1023 hPa
Sichtweite 10 km oder mehr
keine Wolken unter 1500 m und keine Kumulonimbus oder Gewitterwolken

METAR: LFRG 180730Z AUTO 06006KT 020V120 CAVOK 14/11 Q1023 NOSIG

Zeit: 09:53 (07:53 UTC)

Prognose

Neuester Wetterbericht von vor 2 Stunden und 53 Minuten, um 05:00 UTC
Gültige Prognose vom 18 um 06 UTC bis 18 um 15 UTC
Wind 10 kt aus Nordost
Sichtweite 10 km oder mehr
keine Wolken unter 1500 m und keine Kumulonimbus oder Gewitterwolken

TAF: LFRG 180500Z 1806/1815 05010KT CAVOK

Wetterbeobachtungen und Prognosen von mehr als 4000 Flughäfen (METAR und TAF Bericht).

Die verfügbaren Stationen werden durch gelbe und rote Markierungen auf der Karte dargestellt.

Führen Sie die Maus auf sie, um den Namen der Station zu sehen.

Darauf klicken, um die Beobachtung von Wetterbeobachtungen und Prognosen zu sehen.

Um die Karte zu ändern : klicken Sie auf den grünen Tasten mit einem schwarzen Kreuz Zum Vergrößern, auf den grünen Button mit einem Gedankenstrich zu verkleinern, oder auf die grünen Pfeile für benachbarte Karten.


METAR-TAF: